Time;durP1;ratioP1;P1;durP2;ratioP2;P2;SDS_P1;SDS_P2;PMS_P1;PMS_P2;Temp;Humidity;BMP_temperature;BMP_pressure;BME280_temperature;BME280_humidity;BME280_pressure;Samples;Min_cycle;Max_cycle;Signal;HPM_P1;HPM_P2
2022/01/04 00:00:39;;;;;;;2.22;1.50;;;;;;;8.54;100.00;99126.38;5105821;28;20376;-74
2022/01/04 00:03:04;;;;;;;1.73;1.15;;;;;;;8.52;100.00;99122.28;5105133;28;20081;-74
2022/01/04 00:05:29;;;;;;;2.58;1.40;;;;;;;8.54;100.00;99128.31;5099479;28;20035;-74
2022/01/04 00:07:55;;;;;;;1.52;1.00;;;;;;;8.53;100.00;99124.75;5103779;28;20031;-73
2022/01/04 00:10:23;;;;;;;1.33;0.93;;;;;;;8.45;100.00;99128.25;5100784;28;20065;-74
2022/01/04 00:15:33;;;;;;;1.10;0.70;;;;;;;8.56;100.00;99121.34;5103258;28;20032;-74
2022/01/04 00:17:58;;;;;;;2.85;1.02;;;;;;;8.58;100.00;99129.31;5103777;28;20491;-74
2022/01/04 00:20:24;;;;;;;1.20;0.90;;;;;;;8.58;100.00;99124.63;5092389;27;20034;-73
2022/01/04 00:22:49;;;;;;;1.15;0.70;;;;;;;8.57;100.00;99116.63;5113221;28;20048;-74
2022/01/04 00:25:16;;;;;;;1.65;0.80;;;;;;;8.53;100.00;99126.69;5095375;28;20024;-74
2022/01/04 00:27:42;;;;;;;2.03;1.00;;;;;;;8.54;100.00;99112.53;5085197;28;20019;-74
2022/01/04 00:30:08;;;;;;;1.73;0.90;;;;;;;8.52;100.00;99111.22;5064173;27;20075;-74
2022/01/04 00:32:33;;;;;;;0.80;0.73;;;;;;;8.49;100.00;99107.13;5136404;27;20471;-74
2022/01/04 00:34:59;;;;;;;3.53;0.80;;;;;;;8.45;100.00;99109.72;5120737;27;20058;-74
2022/01/04 00:37:24;;;;;;;1.05;0.80;;;;;;;8.47;100.00;99101.09;5124483;27;20050;-74
2022/01/04 00:39:49;;;;;;;1.20;0.77;;;;;;;8.38;100.00;99098.22;5109313;28;20035;-74
2022/01/04 00:42:15;;;;;;;0.98;0.65;;;;;;;8.37;100.00;99098.56;5127853;28;20032;-74
2022/01/04 00:44:41;;;;;;;3.92;0.90;;;;;;;8.28;100.00;99088.22;5083568;27;20104;-74
2022/01/04 00:47:08;;;;;;;0.88;0.50;;;;;;;8.23;100.00;99079.25;5110097;28;20031;-74
2022/01/04 00:49:34;;;;;;;0.57;0.45;;;;;;;8.17;100.00;99083.25;5135614;27;20035;-74
2022/01/04 00:52:01;;;;;;;0.57;0.43;;;;;;;8.18;100.00;99082.94;5133651;27;20028;-74
2022/01/04 00:54:26;;;;;;;2.95;0.73;;;;;;;8.19;100.00;99092.88;5138272;27;20066;-74
2022/01/04 00:56:52;;;;;;;1.38;0.50;;;;;;;8.15;100.00;99083.56;5127987;27;20055;-74
2022/01/04 00:59:17;;;;;;;0.60;0.50;;;;;;;8.21;100.00;99092.56;5090980;28;20058;-74
2022/01/04 01:01:43;;;;;;;0.65;0.55;;;;;;;8.17;100.00;99099.84;5133496;27;20031;-74
2022/01/04 01:04:08;;;;;;;1.60;0.80;;;;;;;8.19;100.00;99108.63;5118156;28;20083;-74
2022/01/04 01:06:34;;;;;;;1.27;0.77;;;;;;;8.15;100.00;99105.69;5132827;27;20130;-74
2022/01/04 01:08:59;;;;;;;1.30;0.60;;;;;;;8.19;100.00;99105.88;5109947;28;20030;-74
2022/01/04 01:11:25;;;;;;;1.02;0.77;;;;;;;8.17;100.00;99103.44;5120682;27;20053;-74
2022/01/04 01:13:50;;;;;;;1.25;0.60;;;;;;;8.16;100.00;99103.72;5141184;27;20031;-74
2022/01/04 01:16:16;;;;;;;0.70;0.60;;;;;;;8.15;100.00;99086.31;5135468;28;20023;-74
2022/01/04 01:18:41;;;;;;;3.38;0.70;;;;;;;8.17;100.00;99089.59;5130808;27;20034;-74
2022/01/04 01:21:07;;;;;;;0.75;0.63;;;;;;;8.19;100.00;99100.34;5136400;27;20023;-74
2022/01/04 01:23:33;;;;;;;1.50;1.00;;;;;;;8.14;100.00;99097.72;5098779;28;20032;-74
2022/01/04 01:25:59;;;;;;;1.25;0.70;;;;;;;8.18;100.00;99107.81;5097654;28;20064;-74
2022/01/04 01:28:24;;;;;;;1.30;0.80;;;;;;;8.14;100.00;99101.28;5103920;27;20464;-74
2022/01/04 01:30:50;;;;;;;0.70;0.60;;;;;;;8.15;100.00;99100.16;5068652;28;20071;-74
2022/01/04 01:33:15;;;;;;;0.90;0.80;;;;;;;8.12;100.00;99106.31;5112655;28;20114;-74
2022/01/04 01:35:41;;;;;;;0.90;0.80;;;;;;;8.16;100.00;99109.25;5116885;28;20051;-74
2022/01/04 01:38:08;;;;;;;1.10;0.90;;;;;;;8.12;100.00;99103.53;5082403;28;20047;-74
2022/01/04 01:40:34;;;;;;;1.75;0.95;;;;;;;8.11;100.00;99110.22;5099239;28;20054;-74
2022/01/04 01:42:59;;;;;;;1.98;0.90;;;;;;;8.09;100.00;99100.59;5120166;27;20472;-74
2022/01/04 01:45:25;;;;;;;2.08;0.77;;;;;;;8.10;100.00;99091.97;5099300;27;20040;-74
2022/01/04 01:47:51;;;;;;;1.65;0.80;;;;;;;8.01;100.00;99094.66;5098870;28;20073;-74
2022/01/04 01:50:16;;;;;;;1.85;1.20;;;;;;;8.02;100.00;99101.84;5108937;27;20634;-74
2022/01/04 01:52:42;;;;;;;1.67;0.82;;;;;;;8.01;100.00;99115.97;5126095;27;20383;-74
2022/01/04 01:55:08;;;;;;;1.25;0.75;;;;;;;7.95;100.00;99101.44;5102586;27;20076;-74
2022/01/04 01:57:34;;;;;;;0.93;0.80;;;;;;;7.93;100.00;99095.41;5119430;27;20460;-74
2022/01/04 01:59:59;;;;;;;3.00;0.93;;;;;;;7.95;100.00;99101.44;5104656;28;20031;-74
2022/01/04 02:02:25;;;;;;;1.10;0.90;;;;;;;7.92;100.00;99101.25;5066115;28;20039;-74
2022/01/04 02:04:50;;;;;;;2.92;0.93;;;;;;;7.87;100.00;99093.88;5112105;27;20040;-74
2022/01/04 02:07:16;;;;;;;2.22;0.90;;;;;;;7.89;100.00;99090.81;5109062;28;20062;-74
2022/01/04 02:09:47;;;;;;;2.65;1.02;;;;;;;7.83;100.00;99088.16;5107563;27;20028;-74
2022/01/04 02:12:12;;;;;;;0.82;0.63;;;;;;;7.83;100.00;99093.69;5116942;27;20091;-74
2022/01/04 02:14:38;;;;;;;2.55;1.05;;;;;;;7.74;100.00;99090.00;5118504;27;20547;-74
2022/01/04 02:17:04;;;;;;;1.23;0.85;;;;;;;7.77;100.00;99097.72;5104825;27;20028;-74
2022/01/04 02:19:34;;;;;;;2.30;0.90;;;;;;;7.70;100.00;99083.47;5069639;27;20038;-74
2022/01/04 02:22:00;;;;;;;1.92;0.90;;;;;;;7.72;100.00;99100.59;5077002;28;20040;-75
2022/01/04 02:24:26;;;;;;;2.00;1.00;;;;;;;7.76;100.00;99087.75;5129641;27;20035;-74
2022/01/04 02:26:51;;;;;;;1.05;0.88;;;;;;;7.78;100.00;99106.81;5120064;27;20034;-74
2022/01/04 02:29:17;;;;;;;1.58;0.98;;;;;;;7.78;100.00;99104.88;5113401;28;20052;-74
2022/01/04 02:31:42;;;;;;;0.88;0.77;;;;;;;7.77;100.00;99111.53;5084989;27;20035;-74
2022/01/04 02:34:07;;;;;;;1.00;0.80;;;;;;;7.79;100.00;99116.72;5100056;28;20077;-74
2022/01/04 02:36:33;;;;;;;1.70;1.05;;;;;;;7.81;100.00;99114.47;5098714;28;20387;-74
2022/01/04 02:38:59;;;;;;;2.70;1.30;;;;;;;7.81;100.00;99111.72;5094019;28;20066;-74
2022/01/04 02:41:24;;;;;;;3.22;1.15;;;;;;;7.83;100.00;99110.28;5099248;28;20059;-74
2022/01/04 02:43:49;;;;;;;2.83;1.00;;;;;;;7.79;100.00;99100.97;5105579;27;20043;-74
2022/01/04 02:46:15;;;;;;;2.95;1.30;;;;;;;7.81;100.00;99101.47;5103970;27;20031;-74
2022/01/04 02:48:42;;;;;;;2.50;1.20;;;;;;;7.79;100.00;99102.91;5092835;27;20035;-74
2022/01/04 02:51:07;;;;;;;2.05;1.00;;;;;;;7.84;100.00;99098.09;5097611;28;20032;-74
2022/01/04 02:53:33;;;;;;;1.25;1.00;;;;;;;7.86;100.00;99106.09;5112481;28;20475;-74
2022/01/04 02:55:58;;;;;;;1.75;1.00;;;;;;;7.88;100.00;99111.28;5106808;27;20046;-74
2022/01/04 02:58:24;;;;;;;1.58;0.90;;;;;;;7.87;100.00;99120.72;5115554;27;20036;-74
2022/01/04 03:00:49;;;;;;;3.80;1.35;;;;;;;7.89;100.00;99124.00;5127546;27;20369;-74
2022/01/04 03:03:15;;;;;;;1.60;1.20;;;;;;;7.89;100.00;99133.09;5110701;27;20072;-74
2022/01/04 03:05:40;;;;;;;2.15;1.23;;;;;;;7.88;100.00;99125.09;5099895;28;20047;-74
2022/01/04 03:08:06;;;;;;;3.28;1.20;;;;;;;7.83;100.00;99137.91;5079041;28;20043;-73
2022/01/04 03:10:32;;;;;;;2.40;1.30;;;;;;;7.80;100.00;99133.03;5106988;27;20032;-74
2022/01/04 03:12:57;;;;;;;1.73;1.20;;;;;;;7.84;100.00;99145.06;5108958;28;20056;-74
2022/01/04 03:15:23;;;;;;;1.30;1.00;;;;;;;7.86;100.00;99150.31;5116326;28;20027;-74
2022/01/04 03:17:48;;;;;;;1.40;0.95;;;;;;;7.82;100.00;99144.56;5113666;27;20114;-73
2022/01/04 03:20:14;;;;;;;1.42;0.90;;;;;;;7.81;100.00;99148.47;5098311;28;20039;-74
2022/01/04 03:22:39;;;;;;;1.38;0.85;;;;;;;7.79;100.00;99142.41;5115349;27;20028;-74
2022/01/04 03:25:05;;;;;;;1.33;1.00;;;;;;;7.79;100.00;99142.41;5112494;28;20106;-73
2022/01/04 03:27:31;;;;;;;2.28;1.00;;;;;;;7.80;100.00;99152.38;5097167;28;20516;-74
2022/01/04 03:29:56;;;;;;;3.60;1.30;;;;;;;7.77;100.00;99144.69;5110940;28;20055;-73
2022/01/04 03:32:22;;;;;;;3.03;1.00;;;;;;;7.81;100.00;99134.66;5103537;27;20383;-74
2022/01/04 03:34:47;;;;;;;2.08;1.08;;;;;;;7.80;100.00;99134.94;5119397;27;20038;-74
2022/01/04 03:37:13;;;;;;;1.33;0.90;;;;;;;7.81;100.00;99118.06;5110167;28;20039;-73
2022/01/04 03:39:38;;;;;;;1.75;1.33;;;;;;;7.81;100.00;99118.06;5096157;28;20537;-74
2022/01/04 03:42:05;;;;;;;1.67;1.10;;;;;;;7.78;100.00;99107.63;5118526;27;20539;-74
2022/01/04 03:44:30;;;;;;;2.20;0.90;;;;;;;7.82;100.00;99116.09;5110864;27;20380;-74
2022/01/04 03:46:56;;;;;;;2.67;1.25;;;;;;;7.80;100.00;99113.66;5129811;27;20073;-74
2022/01/04 03:49:22;;;;;;;1.95;1.20;;;;;;;7.81;100.00;99115.28;5106240;27;20031;-74
2022/01/04 03:51:47;;;;;;;5.00;0.90;;;;;;;7.81;100.00;99118.06;5122650;27;20059;-74
2022/01/04 03:54:13;;;;;;;3.63;1.42;;;;;;;7.83;100.00;99137.09;5113277;27;20033;-74
2022/01/04 03:56:38;;;;;;;3.85;1.00;;;;;;;7.85;100.00;99143.13;5087881;27;20051;-74
2022/01/04 03:59:04;;;;;;;2.55;1.10;;;;;;;7.86;100.00;99146.72;5130433;27;20035;-74
2022/01/04 04:01:30;;;;;;;3.35;1.30;;;;;;;7.83;100.00;99140.69;5133300;27;20091;-74
2022/01/04 04:03:56;;;;;;;2.28;1.30;;;;;;;7.88;100.00;99138.94;5113572;28;20123;-74
2022/01/04 04:06:21;;;;;;;1.23;1.00;;;;;;;7.86;100.00;99146.72;5115220;27;20034;-74
2022/01/04 04:08:47;;;;;;;2.28;1.10;;;;;;;7.90;100.00;99156.84;5130882;27;20032;-73
2022/01/04 04:11:12;;;;;;;2.33;1.27;;;;;;;7.88;100.00;99147.22;5115491;27;20027;-74
2022/01/04 04:13:38;;;;;;;1.45;1.00;;;;;;;7.90;100.00;99147.72;5095139;28;20031;-73
2022/01/04 04:16:04;;;;;;;2.45;1.40;;;;;;;7.88;100.00;99152.75;5133867;27;20388;-74
2022/01/04 04:18:29;;;;;;;2.50;1.17;;;;;;;7.88;100.00;99155.50;5129705;27;20027;-73
2022/01/04 04:20:55;;;;;;;1.67;1.15;;;;;;;7.90;100.00;99147.72;5130306;27;20059;-74
2022/01/04 04:23:20;;;;;;;1.70;1.20;;;;;;;7.90;100.00;99142.22;5135332;27;20054;-73
2022/01/04 04:25:46;;;;;;;1.67;1.13;;;;;;;7.86;100.00;99141.19;5115161;27;20057;-74
2022/01/04 04:28:11;;;;;;;2.10;1.17;;;;;;;7.87;100.00;99140.06;5114920;27;20026;-74
2022/01/04 04:30:37;;;;;;;2.25;1.10;;;;;;;7.85;100.00;99123.78;5130901;27;20039;-74
2022/01/04 04:33:02;;;;;;;2.55;1.00;;;;;;;7.85;100.00;99107.19;5110678;28;20080;-73
2022/01/04 04:35:29;;;;;;;2.25;1.05;;;;;;;7.87;100.00;99113.22;5135286;27;20031;-74
2022/01/04 04:37:56;;;;;;;1.75;1.05;;;;;;;7.89;100.00;99121.22;5114917;27;20105;-74
2022/01/04 04:40:22;;;;;;;1.40;0.85;;;;;;;7.87;100.00;99121.53;5126186;27;20064;-74
2022/01/04 04:42:47;;;;;;;1.50;1.08;;;;;;;7.87;100.00;99151.13;5117846;28;20031;-74
2022/01/04 04:45:13;;;;;;;1.88;0.90;;;;;;;7.83;100.00;99139.88;5111291;28;20024;-74
2022/01/04 04:47:38;;;;;;;1.73;1.10;;;;;;;7.86;100.00;99127.38;5091390;28;20038;-74
2022/01/04 04:50:04;;;;;;;1.60;1.00;;;;;;;7.87;100.00;99129.81;5097646;28;20034;-74
2022/01/04 04:52:30;;;;;;;2.65;1.10;;;;;;;7.89;100.00;99133.09;5110981;28;20032;-74
2022/01/04 04:54:55;;;;;;;1.98;0.93;;;;;;;7.87;100.00;99145.59;5104812;28;20031;-73
2022/01/04 04:57:21;;;;;;;1.65;1.38;;;;;;;7.83;100.00;99148.97;5091132;28;20024;-74
2022/01/04 04:59:46;;;;;;;2.15;1.45;;;;;;;7.84;100.00;99142.31;5098205;28;20055;-74
2022/01/04 05:02:12;;;;;;;1.10;1.00;;;;;;;7.86;100.00;99136.50;5116915;28;20042;-74
2022/01/04 05:04:38;;;;;;;3.05;1.20;;;;;;;7.85;100.00;99140.34;5111961;28;20031;-73
2022/01/04 05:07:04;;;;;;;1.40;1.20;;;;;;;7.83;100.00;99140.69;5134341;27;20028;-74
2022/01/04 05:09:29;;;;;;;3.60;1.10;;;;;;;7.84;100.00;99145.06;5112687;28;20652;-74
2022/01/04 05:11:55;;;;;;;1.52;1.20;;;;;;;7.86;100.00;99141.19;5111983;27;20027;-74
2022/01/04 05:14:20;;;;;;;1.65;1.25;;;;;;;7.84;100.00;99145.06;5108342;27;20047;-74
2022/01/04 05:16:46;;;;;;;2.20;1.05;;;;;;;7.82;100.00;99127.97;5117559;27;20084;-74
2022/01/04 05:19:11;;;;;;;1.58;1.20;;;;;;;7.82;100.00;99116.91;5136954;27;20031;-74
2022/01/04 05:21:37;;;;;;;1.77;1.20;;;;;;;7.80;100.00;99105.38;5118457;27;20038;-74
2022/01/04 05:24:02;;;;;;;1.88;1.10;;;;;;;7.81;100.00;99117.25;5117505;27;20031;-74
2022/01/04 05:26:28;;;;;;;2.08;1.02;;;;;;;7.81;100.00;99101.47;5108942;27;20052;-74
2022/01/04 05:28:53;;;;;;;1.83;1.30;;;;;;;7.79;100.00;99108.44;5131768;27;20080;-74
2022/01/04 05:31:19;;;;;;;2.05;1.23;;;;;;;7.78;100.00;99106.81;5104542;28;20039;-74
2022/01/04 05:33:44;;;;;;;1.38;1.27;;;;;;;7.78;100.00;99104.88;5101052;28;20059;-74
2022/01/04 05:36:10;;;;;;;3.53;1.40;;;;;;;7.78;100.00;99106.81;5098112;28;20109;-74
2022/01/04 05:38:35;;;;;;;3.03;1.40;;;;;;;7.76;100.00;99100.78;5100748;28;20038;-74
2022/01/04 05:41:00;;;;;;;2.35;1.50;;;;;;;7.75;100.00;99108.25;5100854;28;20035;-74
2022/01/04 05:43:26;;;;;;;2.33;1.38;;;;;;;7.74;100.00;99105.78;5106702;28;20028;-74
2022/01/04 05:45:51;;;;;;;2.35;1.40;;;;;;;7.72;100.00;99111.63;5113212;28;20035;-74
2022/01/04 05:48:21;;;;;;;3.40;1.50;;;;;;;7.73;100.00;99110.50;5097548;28;20487;-74
2022/01/04 05:50:49;;;;;;;2.85;1.63;;;;;;;7.72;100.00;99124.63;5057621;28;20032;-74
2022/01/04 05:53:15;;;;;;;3.65;1.70;;;;;;;7.70;100.00;99132.41;5110454;28;20495;-74
2022/01/04 05:55:40;;;;;;;2.60;1.88;;;;;;;7.71;100.00;99137.59;5084416;28;20036;-74
2022/01/04 05:58:06;;;;;;;2.95;1.55;;;;;;;7.68;100.00;99137.41;5063011;28;20035;-74
2022/01/04 06:00:31;;;;;;;3.53;2.20;;;;;;;7.71;100.00;99139.56;5061679;28;20059;-73
2022/01/04 06:03:00;;;;;;;2.50;2.20;;;;;;;7.69;100.00;99147.34;5097769;28;20034;-74
2022/01/04 06:05:26;;;;;;;5.60;2.28;;;;;;;7.65;100.00;99149.91;5094537;28;20107;-74
2022/01/04 06:07:51;;;;;;;3.15;2.50;;;;;;;7.66;100.00;99147.94;5081666;28;20031;-74
2022/01/04 06:10:17;;;;;;;6.70;2.75;;;;;;;7.65;100.00;99166.47;5113769;28;20036;-74
2022/01/04 06:15:12;;;;;;;4.30;2.97;;;;;;;7.61;100.00;99171.00;5070683;28;20031;-74
2022/01/04 06:17:42;;;;;;;4.10;3.20;;;;;;;7.61;100.00;99176.53;5056768;28;20036;-74
2022/01/04 06:20:12;;;;;;;5.20;3.45;;;;;;;7.63;100.00;99174.25;5063138;28;20024;-73
2022/01/04 06:22:38;;;;;;;5.03;3.60;;;;;;;7.62;100.00;99186.44;5061168;28;20042;-74
2022/01/04 06:25:04;;;;;;;5.18;3.80;;;;;;;7.61;100.00;99193.09;5071387;28;20036;-73
2022/01/04 06:27:29;;;;;;;6.03;4.40;;;;;;;7.60;100.00;99194.22;5074089;28;20055;-74
2022/01/04 06:29:55;;;;;;;4.95;4.07;;;;;;;7.58;100.00;99211.13;5076904;28;20047;-73
2022/01/04 06:32:20;;;;;;;7.72;4.47;;;;;;;7.57;100.00;99220.50;5110548;28;20047;-73
2022/01/04 06:34:46;;;;;;;8.73;4.88;;;;;;;7.58;100.00;99218.59;5117557;28;20035;-74
2022/01/04 06:37:12;;;;;;;6.00;4.40;;;;;;;7.56;100.00;99215.31;5112579;28;20027;-74
2022/01/04 06:39:38;;;;;;;8.45;5.18;;;;;;;7.59;100.00;99206.41;5109335;28;20427;-75
2022/01/04 06:42:03;;;;;;;8.10;6.30;;;;;;;7.58;100.00;99202.81;5113157;28;20028;-75
2022/01/04 06:44:29;;;;;;;12.18;6.70;;;;;;;7.58;100.00;99190.97;5099063;28;20058;-74
2022/01/04 06:46:54;;;;;;;9.65;6.57;;;;;;;7.57;100.00;99189.31;5111077;28;20027;-74
2022/01/04 06:49:21;;;;;;;7.82;6.40;;;;;;;7.56;100.00;99193.19;5107190;28;20055;-74
2022/01/04 06:51:47;;;;;;;10.65;6.63;;;;;;;7.57;100.00;99203.94;5116397;28;20066;-74
2022/01/04 06:54:13;;;;;;;10.30;7.00;;;;;;;7.57;100.00;99194.81;5093909;28;20024;-74
2022/01/04 06:56:39;;;;;;;11.02;7.47;;;;;;;7.57;100.00;99201.16;5097145;28;20024;-73
2022/01/04 06:59:05;;;;;;;11.23;7.28;;;;;;;7.58;100.00;99199.25;5092972;28;20038;-74
2022/01/04 07:01:30;;;;;;;11.00;7.32;;;;;;;7.58;100.00;99204.78;5108965;27;20050;-73
2022/01/04 07:03:56;;;;;;;11.23;7.28;;;;;;;7.56;100.00;99213.34;5104920;28;20475;-73
2022/01/04 07:06:21;;;;;;;12.15;7.50;;;;;;;7.55;100.00;99219.16;5103868;28;20475;-73
2022/01/04 07:08:47;;;;;;;9.57;7.13;;;;;;;7.56;100.00;99215.31;5077633;28;20028;-73
2022/01/04 07:11:13;;;;;;;11.93;7.18;;;;;;;7.53;100.00;99211.22;5096893;28;20028;-73
2022/01/04 07:13:39;;;;;;;10.98;6.97;;;;;;;7.54;100.00;99212.03;5081462;28;20032;-74
2022/01/04 07:16:04;;;;;;;9.15;6.78;;;;;;;7.55;100.00;99203.44;5092364;28;20380;-74
2022/01/04 07:18:30;;;;;;;7.00;5.78;;;;;;;7.55;100.00;99186.03;5080030;28;20036;-73
2022/01/04 07:20:55;;;;;;;9.35;5.85;;;;;;;7.54;100.00;99192.69;5080347;28;20471;-71
2022/01/04 07:23:22;;;;;;;8.23;5.65;;;;;;;7.55;100.00;99189.63;5098262;28;20042;-72
2022/01/04 07:25:48;;;;;;;11.57;6.68;;;;;;;7.50;100.00;99189.72;5094289;28;20040;-71
2022/01/04 07:28:13;;;;;;;11.50;6.88;;;;;;;7.50;100.00;99194.44;5071154;28;20030;-72
2022/01/04 07:30:39;;;;;;;9.38;6.80;;;;;;;7.51;100.00;99193.28;5077326;28;20040;-72
2022/01/04 07:33:04;;;;;;;11.20;6.65;;;;;;;7.48;100.00;99193.91;5077985;28;20075;-72
2022/01/04 07:35:30;;;;;;;13.63;6.20;;;;;;;7.41;100.00;99196.25;5062073;27;20043;-72
2022/01/04 07:37:55;;;;;;;10.05;6.13;;;;;;;7.40;100.00;99200.94;5065688;28;20035;-72
2022/01/04 07:40:22;;;;;;;10.35;5.93;;;;;;;7.36;100.00;99192.47;5066013;27;20054;-72
2022/01/04 07:42:48;;;;;;;9.68;5.97;;;;;;;7.35;100.00;99196.38;5076957;28;20040;-72
2022/01/04 07:45:14;;;;;;;8.55;5.88;;;;;;;7.31;100.00;99192.56;5081415;28;20373;-72
2022/01/04 07:47:41;;;;;;;10.57;5.85;;;;;;;7.29;100.00;99194.78;5089137;28;20557;-72
2022/01/04 07:50:07;;;;;;;9.35;5.82;;;;;;;7.28;100.00;99192.34;5106822;28;20028;-72
2022/01/04 07:52:33;;;;;;;10.25;5.53;;;;;;;7.26;100.00;99184.34;5089216;28;20028;-72
2022/01/04 07:54:59;;;;;;;12.32;5.78;;;;;;;7.25;100.00;99171.69;5079104;28;20031;-72
2022/01/04 07:57:25;;;;;;;9.80;5.60;;;;;;;7.25;100.00;99179.16;5079205;28;20027;-72
2022/01/04 07:59:50;;;;;;;9.38;4.97;;;;;;;7.24;100.00;99166.44;5091086;27;20042;-72
2022/01/04 08:02:16;;;;;;;10.93;5.82;;;;;;;7.23;100.00;99171.16;5115442;27;20043;-72
2022/01/04 08:04:41;;;;;;;11.48;5.55;;;;;;;7.22;100.00;99164.00;5113339;28;20534;-72
2022/01/04 08:07:07;;;;;;;10.00;4.75;;;;;;;7.20;100.00;99148.88;5109998;27;20050;-72
2022/01/04 08:09:32;;;;;;;8.77;4.78;;;;;;;7.19;100.00;99153.59;5099961;27;20030;-72
2022/01/04 08:11:58;;;;;;;8.40;5.10;;;;;;;7.16;100.00;99166.06;5097747;28;21093;-72
2022/01/04 08:14:24;;;;;;;7.22;4.75;;;;;;;7.16;100.00;99154.19;5094347;28;20043;-72
2022/01/04 08:16:49;;;;;;;10.27;5.68;;;;;;;7.14;100.00;99137.91;5087276;28;20097;-72
2022/01/04 08:19:15;;;;;;;8.05;5.65;;;;;;;7.12;100.00;99142.09;5118042;27;20024;-72
2022/01/04 08:21:40;;;;;;;10.73;5.82;;;;;;;7.09;100.00;99137.19;5113298;27;20038;-72
2022/01/04 08:24:06;;;;;;;12.20;6.28;;;;;;;7.05;100.00;99139.75;5103897;28;20040;-72
2022/01/04 08:26:31;;;;;;;12.00;6.45;;;;;;;7.04;100.00;99146.38;5111427;27;20036;-72
2022/01/04 08:28:57;;;;;;;11.85;6.63;;;;;;;7.01;100.00;99157.22;5090186;28;20024;-72
2022/01/04 08:31:23;;;;;;;9.48;6.70;;;;;;;6.98;100.00;99168.88;5122661;27;20047;-72
2022/01/04 08:33:48;;;;;;;12.35;6.13;;;;;;;6.96;100.00;99165.59;5099269;28;20065;-72
2022/01/04 08:36:14;;;;;;;10.65;6.90;;;;;;;6.96;100.00;99182.16;5098263;28;20028;-72
2022/01/04 08:38:40;;;;;;;11.10;5.85;;;;;;;6.93;100.00;99176.09;5111992;28;20042;-72
2022/01/04 08:41:05;;;;;;;10.27;5.63;;;;;;;6.93;100.00;99186.31;5096410;28;20031;-72
2022/01/04 08:43:31;;;;;;;9.27;5.15;;;;;;;6.91;100.00;99194.13;5120166;28;20035;-72
2022/01/04 08:45:56;;;;;;;10.25;5.22;;;;;;;6.88;100.00;99206.56;5106704;28;20027;-72
2022/01/04 08:48:22;;;;;;;9.88;5.88;;;;;;;6.89;100.00;99221.19;5080092;28;20023;-72
2022/01/04 08:50:49;;;;;;;10.13;5.45;;;;;;;6.85;100.00;99223.75;5105127;28;20036;-72
2022/01/04 08:53:15;;;;;;;8.95;4.90;;;;;;;6.87;100.00;99221.47;5078217;28;20059;-72
2022/01/04 08:55:40;;;;;;;11.75;5.50;;;;;;;6.85;100.00;99211.84;5061923;28;20070;-72
2022/01/04 08:58:06;;;;;;;7.45;4.43;;;;;;;6.86;100.00;99210.75;5094607;28;20040;-71
2022/01/04 09:00:32;;;;;;;10.40;4.97;;;;;;;6.86;100.00;99208.00;5090887;28;20382;-71
2022/01/04 09:02:59;;;;;;;9.55;5.10;;;;;;;6.85;100.00;99220.97;5090417;28;20035;-71
2022/01/04 09:05:25;;;;;;;9.63;5.35;;;;;;;6.86;100.00;99230.06;5099502;28;20054;-71
2022/01/04 09:07:51;;;;;;;10.05;4.97;;;;;;;6.86;100.00;99225.38;5078428;28;20027;-72
2022/01/04 09:10:17;;;;;;;13.43;5.60;;;;;;;6.86;100.00;99239.16;5090086;28;20043;-71
2022/01/04 09:12:59;;;;;;;13.13;5.18;;;;;;;6.89;100.00;99240.50;5109932;28;20036;-72
2022/01/04 09:15:32;;;;;;;10.02;4.82;;;;;;;6.89;100.00;99254.31;5080530;28;20031;-71
2022/01/04 09:20:45;;;;;;;8.73;4.65;;;;;;;6.92;100.00;99262.78;5102605;28;20122;-71
2022/01/04 09:23:13;;;;;;;10.00;4.53;;;;;;;6.96;100.00;99274.03;5080253;28;20084;-71
2022/01/04 09:25:38;;;;;;;11.40;5.25;;;;;;;6.98;100.00;99259.97;5090435;28;20036;-72
2022/01/04 09:28:04;;;;;;;9.40;4.68;;;;;;;7.00;100.00;99272.34;5075296;28;20126;-72
2022/01/04 09:30:29;;;;;;;9.77;5.05;;;;;;;7.05;100.00;99276.94;5102604;28;20035;-71
2022/01/04 09:32:55;;;;;;;8.52;4.75;;;;;;;7.07;100.00;99277.47;5079506;28;20047;-72
2022/01/04 09:35:20;;;;;;;8.15;4.32;;;;;;;7.10;100.00;99293.44;5081293;28;20038;-71
2022/01/04 09:37:46;;;;;;;13.07;5.05;;;;;;;7.14;100.00;99275.16;5080743;28;20105;-71
2022/01/04 09:40:11;;;;;;;16.65;5.40;;;;;;;7.17;100.00;99274.56;5083319;28;20085;-71
2022/01/04 09:42:37;;;;;;;9.90;4.93;;;;;;;7.22;100.00;99271.72;5061110;28;20059;-71
2022/01/04 09:45:04;;;;;;;11.05;5.50;;;;;;;7.25;100.00;99273.03;5082802;28;20032;-72
2022/01/04 09:47:30;;;;;;;8.32;4.45;;;;;;;7.26;100.00;99269.16;5079054;28;20027;-72
2022/01/04 09:49:57;;;;;;;8.18;4.72;;;;;;;7.29;100.00;99288.69;5064840;28;20027;-72
2022/01/04 09:52:23;;;;;;;10.95;4.80;;;;;;;7.31;100.00;99283.69;5080682;28;20114;-72
2022/01/04 09:54:50;;;;;;;11.60;5.40;;;;;;;7.33;100.00;99289.75;5085981;28;20046;-72
2022/01/04 09:57:16;;;;;;;9.75;5.20;;;;;;;7.38;100.00;99280.53;5084453;28;20105;-72
2022/01/04 09:59:41;;;;;;;11.90;4.97;;;;;;;7.41;100.00;99279.09;5080899;28;20119;-72
2022/01/04 10:02:14;;;;;;;10.25;4.90;;;;;;;7.43;100.00;99283.22;5097990;28;20028;-74
2022/01/04 10:04:40;;;;;;;;;;;;;;;7.45;100.00;99286.50;5085251;27;20126;-76
2022/01/04 10:07:07;;;;;;;9.73;4.25;;;;;;;7.49;100.00;99293.03;5112035;27;20003;-73
2022/01/04 10:09:48;;;;;;;11.10;4.28;;;;;;;7.53;100.00;99290.50;5108824;27;20023;-74
2022/01/04 10:12:14;;;;;;;9.57;4.13;;;;;;;7.55;100.00;99285.47;5096524;28;20590;-72
2022/01/04 10:14:43;;;;;;;7.78;4.20;;;;;;;7.57;100.00;99288.75;5103029;28;20027;-74
2022/01/04 10:17:30;;;;;;;9.65;4.20;;;;;;;7.62;100.00;99288.69;5111223;28;20547;-72
2022/01/04 10:19:57;;;;;;;8.15;3.85;;;;;;;7.64;100.00;99289.19;5116614;27;20066;-73
2022/01/04 10:22:27;;;;;;;13.65;4.43;;;;;;;7.68;100.00;99301.28;5100359;27;20594;-76
2022/01/04 10:25:02;;;;;;;10.00;4.70;;;;;;;7.73;100.00;99303.94;5130198;27;20027;-74
2022/01/04 10:27:45;;;;;;;8.07;4.60;;;;;;;7.77;100.00;99298.63;5118015;27;20142;-74
2022/01/04 10:30:20;;;;;;;9.27;4.47;;;;;;;7.82;100.00;99301.28;5095336;28;20044;-75
2022/01/04 10:33:01;;;;;;;12.45;5.22;;;;;;;7.87;100.00;99300.38;5100605;28;20403;-74
2022/01/04 10:35:29;;;;;;;9.52;4.30;;;;;;;7.92;100.00;99297.53;5111214;27;20028;-74
2022/01/04 10:37:56;;;;;;;8.27;4.40;;;;;;;7.96;100.00;99290.25;5117070;28;20127;-73
2022/01/04 10:40:22;;;;;;;12.85;4.40;;;;;;;7.99;100.00;99289.63;5098473;28;20039;-74
2022/01/04 10:42:47;;;;;;;8.25;4.10;;;;;;;8.04;100.00;99297.84;5080148;28;20073;-74
2022/01/04 10:45:26;;;;;;;10.32;3.83;;;;;;;8.08;100.00;99285.06;5080168;28;20023;-74
2022/01/04 10:47:52;;;;;;;10.75;4.35;;;;;;;8.13;100.00;99292.41;5112788;28;20031;-74
2022/01/04 10:50:37;;;;;;;13.88;4.32;;;;;;;8.16;100.00;99289.88;5095558;28;20029;-74
2022/01/04 10:53:03;;;;;;;15.65;4.57;;;;;;;8.21;100.00;99292.50;5118150;28;20129;-75
2022/01/04 10:55:35;;;;;;;12.85;4.88;;;;;;;8.25;100.00;99287.19;5093459;28;20039;-74
2022/01/04 10:58:01;;;;;;;15.70;4.82;;;;;;;8.27;100.00;99283.00;5109934;28;20118;-74
2022/01/04 11:00:27;;;;;;;9.52;3.97;;;;;;;8.31;100.00;99290.69;5097110;28;20080;-74
2022/01/04 11:02:53;;;;;;;12.52;4.45;;;;;;;8.34;100.00;99288.09;5094178;28;20032;-74
2022/01/04 11:05:20;;;;;;;10.60;3.72;;;;;;;8.38;100.00;99278.03;5097248;28;20057;-74
2022/01/04 11:08:03;;;;;;;12.18;3.80;;;;;;;8.41;100.00;99277.47;5062714;28;20046;-74
2022/01/04 11:10:31;;;;;;;10.48;3.50;;;;;;;8.45;100.00;99281.25;5093189;28;20035;-74
2022/01/04 11:12:58;;;;;;;17.05;4.50;;;;;;;8.49;100.00;99285.03;5095854;28;20024;-74
2022/01/04 11:15:24;;;;;;;12.23;3.60;;;;;;;8.52;100.00;99274.47;5078617;28;20036;-74
2022/01/04 11:17:49;;;;;;;13.23;3.67;;;;;;;8.54;100.00;99264.72;5093196;28;20081;-74
2022/01/04 11:20:15;;;;;;;11.10;3.50;;;;;;;8.57;100.00;99268.81;5113103;28;20024;-74
2022/01/04 11:22:40;;;;;;;15.68;3.53;;;;;;;8.61;100.00;99253.22;5105163;28;20032;-74
2022/01/04 11:25:06;;;;;;;12.85;3.15;;;;;;;8.64;100.00;99258.16;5087820;28;20030;-74
2022/01/04 11:27:32;;;;;;;14.98;3.63;;;;;;;8.68;100.00;99262.75;5095465;28;20028;-74
2022/01/04 11:29:58;;;;;;;9.55;3.05;;;;;;;8.71;100.00;99267.66;5095674;27;20097;-74
2022/01/04 11:32:24;;;;;;;13.50;2.97;;;;;;;8.75;100.00;99264.25;5118436;27;20425;-74
2022/01/04 11:35:20;;;;;;;14.82;3.53;;;;;;;8.80;100.00;99261.38;5109712;27;20027;-74